Time;durP1;ratioP1;P1;durP2;ratioP2;P2;SDS_P1;SDS_P2;PMS_P1;PMS_P2;Temp;Humidity;BMP_temperature;BMP_pressure;BME280_temperature;BME280_humidity;BME280_pressure;Samples;Min_cycle;Max_cycle;Signal;HPM_P1;HPM_P2
2022/07/27 00:02:47;;;;;;;0.37;0.37;;;;;;;30.38;27.11;98910.24;1873016;75;28066;-43
2022/07/27 00:05:38;;;;;;;0.53;0.53;;;;;;;30.39;27.12;98922.95;1872426;75;28177;-43
2022/07/27 00:08:25;;;;;;;0.50;0.50;;;;;;;30.39;27.13;98925.73;1853602;75;28278;-43
2022/07/27 00:11:14;;;;;;;0.45;0.45;;;;;;;30.40;27.16;98921.30;1854394;75;28056;-45
2022/07/27 00:14:03;;;;;;;0.50;0.50;;;;;;;30.38;27.13;98932.41;1874076;75;28181;-43
2022/07/27 00:16:51;;;;;;;0.42;0.42;;;;;;;30.37;27.20;98895.55;1865536;76;28126;-42
2022/07/27 00:19:39;;;;;;;0.40;0.40;;;;;;;30.40;27.20;98919.08;1855341;76;28125;-43
2022/07/27 00:22:34;;;;;;;0.60;0.43;;;;;;;30.43;27.16;98927.63;1873040;75;28011;-42
2022/07/27 00:25:22;;;;;;;0.60;0.60;;;;;;;30.41;27.12;98905.49;1869349;75;28087;-43
2022/07/27 00:28:11;;;;;;;0.70;0.42;;;;;;;30.40;27.22;98916.30;1872271;75;28137;-43
2022/07/27 00:30:59;;;;;;;0.50;0.50;;;;;;;30.37;27.25;98917.72;1876352;75;28056;-43
2022/07/27 00:33:47;;;;;;;0.45;0.45;;;;;;;30.38;27.26;98947.10;1852396;76;30652;-42
2022/07/27 00:36:36;;;;;;;1.20;0.60;;;;;;;30.35;27.28;98914.99;1868433;76;28154;-43
2022/07/27 00:39:24;;;;;;;1.60;0.40;;;;;;;30.34;27.30;98922.47;1853507;76;28116;-45
2022/07/27 00:42:13;;;;;;;0.40;0.40;;;;;;;30.33;27.41;98902.00;1858555;75;28109;-42
2022/07/27 00:45:01;;;;;;;0.50;0.50;;;;;;;30.30;27.43;98914.47;1867731;76;28088;-43
2022/07/27 00:47:49;;;;;;;0.80;0.70;;;;;;;30.30;27.45;98902.56;1872482;75;28111;-42
2022/07/27 00:50:40;;;;;;;0.50;0.50;;;;;;;30.31;27.43;98909.77;1869103;75;28085;-43
2022/07/27 00:53:28;;;;;;;0.40;0.40;;;;;;;30.26;27.52;98927.28;1867035;75;28016;-42
2022/07/27 00:56:18;;;;;;;0.50;0.50;;;;;;;30.23;27.60;98917.34;1871707;75;28039;-42
2022/07/27 00:59:07;;;;;;;0.40;0.40;;;;;;;30.26;27.66;98934.77;1871015;75;28047;-43
2022/07/27 01:01:56;;;;;;;1.20;0.60;;;;;;;30.26;27.64;98901.52;1862920;75;28078;-42
2022/07/27 01:04:44;;;;;;;0.42;0.42;;;;;;;30.25;27.70;98910.94;1871777;75;33574;-44
2022/07/27 01:07:33;;;;;;;1.07;0.57;;;;;;;30.24;27.77;98923.16;1852131;75;28151;-43
2022/07/27 01:10:22;;;;;;;0.95;0.57;;;;;;;30.25;27.78;98909.55;1860013;76;28166;-43
2022/07/27 01:13:11;;;;;;;0.50;0.50;;;;;;;30.23;27.77;98907.65;1883026;75;28003;-43
2022/07/27 01:16:00;;;;;;;1.60;0.42;;;;;;;30.24;27.78;98894.91;1855277;76;28158;-42
2022/07/27 01:18:48;;;;;;;0.60;0.60;;;;;;;30.27;27.72;98904.56;1871071;75;28171;-43
2022/07/27 01:21:38;;;;;;;0.60;0.60;;;;;;;30.28;27.70;98924.20;1868543;76;28124;-43
2022/07/27 01:24:26;;;;;;;0.60;0.60;;;;;;;30.26;27.81;98906.50;1877775;75;27991;-42
2022/07/27 01:27:15;;;;;;;0.40;0.40;;;;;;;30.26;27.76;98926.45;1865547;75;28130;-43
2022/07/27 01:30:28;;;;;;;0.50;0.50;;;;;;;30.29;27.75;98905.09;1861962;75;28589;-43
2022/07/27 01:33:05;;;;;;;0.50;0.50;;;;;;;30.27;27.85;98892.89;1858604;76;28115;-42
2022/07/27 01:35:56;;;;;;;0.80;0.60;;;;;;;30.28;27.84;98895.11;1874062;75;28214;-44
2022/07/27 01:38:45;;;;;;;0.40;0.40;;;;;;;30.26;27.90;98903.73;1850161;76;28169;-44
2022/07/27 01:41:34;;;;;;;0.40;0.40;;;;;;;30.25;27.89;98886.83;1878270;75;28228;-43
2022/07/27 01:44:22;;;;;;;0.60;0.57;;;;;;;30.28;27.89;98879.31;1855483;76;28134;-43
2022/07/27 01:47:10;;;;;;;0.37;0.37;;;;;;;30.27;27.85;98876.27;1861679;76;28133;-43
2022/07/27 01:49:58;;;;;;;0.60;0.60;;;;;;;30.28;27.87;98877.09;1865775;75;28167;-43
2022/07/27 01:52:47;;;;;;;0.77;0.57;;;;;;;30.27;27.90;98887.35;1863068;76;28177;-43
2022/07/27 01:55:35;;;;;;;0.50;0.50;;;;;;;30.26;27.90;98877.41;1870689;75;28197;-43
2022/07/27 01:58:24;;;;;;;0.50;0.50;;;;;;;30.28;27.88;98866.02;1857729;76;28112;-43
2022/07/27 02:01:12;;;;;;;0.62;0.60;;;;;;;30.26;27.91;98870.48;1864037;75;28107;-43
2022/07/27 02:04:01;;;;;;;1.12;0.70;;;;;;;30.29;27.76;98871.83;1788700;79;28311;-43
2022/07/27 02:06:49;;;;;;;0.33;0.33;;;;;;;30.28;27.66;98853.55;1847131;76;28247;-42
2022/07/27 02:09:38;;;;;;;0.70;0.50;;;;;;;30.28;27.68;98847.45;1858671;76;28088;-42
2022/07/27 02:12:35;;;;;;;0.40;0.40;;;;;;;30.27;27.70;98844.41;1867682;75;28068;-43
2022/07/27 02:15:26;;;;;;;0.60;0.60;;;;;;;30.24;27.85;98843.64;1874725;75;28155;-43
2022/07/27 02:18:15;;;;;;;3.37;0.67;;;;;;;30.26;27.78;98847.48;1863304;75;27995;-43
2022/07/27 02:21:07;;;;;;;0.60;0.50;;;;;;;30.25;27.84;98845.27;1853215;76;28089;-43
2022/07/27 02:23:55;;;;;;;1.62;0.53;;;;;;;30.28;27.82;98833.59;1868871;76;28106;-43
2022/07/27 02:26:43;;;;;;;0.70;0.40;;;;;;;30.28;27.81;98827.22;1845896;76;28233;-45
2022/07/27 02:29:32;;;;;;;0.50;0.50;;;;;;;30.27;27.84;98838.06;1865463;76;28102;-42
2022/07/27 02:32:21;;;;;;;0.50;0.50;;;;;;;30.32;27.70;98837.95;1848293;76;28365;-43
2022/07/27 02:35:10;;;;;;;1.47;0.40;;;;;;;30.33;27.79;98835.49;1867615;75;28059;-43
2022/07/27 02:37:58;;;;;;;0.30;0.30;;;;;;;30.30;27.80;98842.42;1849560;75;28196;-43
2022/07/27 02:40:47;;;;;;;0.40;0.40;;;;;;;30.31;27.81;98840.48;1875173;75;28057;-43
2022/07/27 02:43:35;;;;;;;0.40;0.40;;;;;;;30.32;27.84;98839.34;1867969;75;28107;-43
2022/07/27 02:46:24;;;;;;;0.40;0.40;;;;;;;30.36;27.82;98847.37;1868028;76;28701;-42
2022/07/27 02:49:12;;;;;;;1.27;0.60;;;;;;;30.37;27.80;98839.30;1866062;75;28184;-44
2022/07/27 02:52:01;;;;;;;0.40;0.40;;;;;;;30.37;27.79;98847.05;1868866;76;28067;-44
2022/07/27 02:54:50;;;;;;;0.60;0.60;;;;;;;30.38;27.83;98850.66;1859244;76;28044;-43
2022/07/27 02:57:39;;;;;;;0.50;0.50;;;;;;;30.39;27.75;98839.81;1863794;76;28042;-43
2022/07/27 03:00:28;;;;;;;0.50;0.50;;;;;;;30.41;27.82;98845.91;1879221;75;28174;-44
2022/07/27 03:03:16;;;;;;;0.40;0.40;;;;;;;30.37;27.85;98851.77;1873487;75;28110;-43
2022/07/27 03:06:07;;;;;;;0.40;0.40;;;;;;;30.37;27.85;98845.67;1874060;76;28197;-42
2022/07/27 03:08:55;;;;;;;0.57;0.57;;;;;;;30.38;27.79;98846.50;1875958;75;28096;-43
2022/07/27 03:11:43;;;;;;;0.53;0.50;;;;;;;30.38;27.83;98842.34;1874560;76;28244;-43
2022/07/27 03:14:32;;;;;;;0.40;0.40;;;;;;;30.38;27.81;98847.89;1866672;75;27996;-42
2022/07/27 03:17:20;;;;;;;0.55;0.55;;;;;;;30.40;27.80;98840.09;1873083;75;28216;-44
2022/07/27 03:20:10;;;;;;;0.60;0.50;;;;;;;30.42;27.78;98850.30;1885147;75;28095;-43
2022/07/27 03:22:58;;;;;;;1.35;0.50;;;;;;;30.39;27.78;98840.64;1870479;75;28143;-43
2022/07/27 03:25:46;;;;;;;0.50;0.50;;;;;;;30.37;27.83;98853.16;1882484;75;28072;-44
2022/07/27 03:28:35;;;;;;;0.53;0.53;;;;;;;30.35;27.86;98844.32;1879175;75;28052;-43
2022/07/27 03:31:23;;;;;;;0.40;0.40;;;;;;;30.34;27.88;98839.92;1860855;76;28136;-43
2022/07/27 03:34:12;;;;;;;0.47;0.42;;;;;;;30.34;27.90;98843.49;1882084;75;28059;-43
2022/07/27 03:37:00;;;;;;;0.40;0.40;;;;;;;30.34;27.93;98848.23;1864840;75;28197;-43
2022/07/27 03:39:49;;;;;;;0.50;0.50;;;;;;;30.31;27.91;98848.23;1880091;75;28068;-44
2022/07/27 03:42:38;;;;;;;0.50;0.50;;;;;;;30.31;27.99;98848.23;1879044;75;28117;-43
2022/07/27 03:45:26;;;;;;;0.60;0.60;;;;;;;30.31;28.01;98855.17;1861234;76;28063;-43
2022/07/27 03:48:14;;;;;;;0.60;0.47;;;;;;;30.33;28.06;98851.56;1882976;75;28553;-44
2022/07/27 03:51:03;;;;;;;0.60;0.60;;;;;;;30.33;28.03;98852.12;1882557;75;28189;-43
2022/07/27 03:53:52;;;;;;;0.40;0.40;;;;;;;30.33;28.01;98852.12;1871700;76;28130;-43
2022/07/27 03:56:40;;;;;;;0.50;0.50;;;;;;;30.32;27.94;98855.41;1875408;75;28460;-44
2022/07/27 03:59:29;;;;;;;0.50;0.50;;;;;;;30.32;28.05;98858.73;1877990;76;28035;-43
2022/07/27 04:02:17;;;;;;;0.50;0.50;;;;;;;30.34;28.04;98857.94;1859643;76;28153;-41
2022/07/27 04:05:07;;;;;;;0.50;0.50;;;;;;;30.17;28.01;98868.69;1880501;75;28376;-43
2022/07/27 04:07:55;;;;;;;0.57;0.57;;;;;;;30.03;28.13;98861.13;1867968;76;28057;-47
2022/07/27 04:10:44;;;;;;;0.70;0.50;;;;;;;29.92;28.19;98858.22;1873884;76;28125;-42
2022/07/27 04:13:32;;;;;;;0.60;0.60;;;;;;;29.79;28.25;98872.81;1887267;75;28072;-44
2022/07/27 04:16:20;;;;;;;1.40;0.57;;;;;;;29.68;28.49;98865.73;1868014;75;28125;-42
2022/07/27 04:19:09;;;;;;;0.90;0.53;;;;;;;29.65;28.59;98864.94;1875887;75;28045;-41
2022/07/27 04:21:58;;;;;;;0.50;0.50;;;;;;;29.54;28.71;98876.43;1880578;75;28226;-40
2022/07/27 04:24:46;;;;;;;0.60;0.60;;;;;;;29.39;28.88;98867.74;1877922;76;28213;-43
2022/07/27 04:27:35;;;;;;;0.53;0.53;;;;;;;29.22;29.03;98862.67;1869899;74;28227;-42
2022/07/27 04:30:24;;;;;;;0.50;0.50;;;;;;;29.13;29.21;98874.08;1868878;76;28196;-43
2022/07/27 04:33:12;;;;;;;0.40;0.40;;;;;;;28.99;29.40;98878.65;1871288;76;28129;-41
2022/07/27 04:36:01;;;;;;;0.62;0.55;;;;;;;28.87;29.53;98883.73;1865085;76;28165;-41
2022/07/27 04:38:49;;;;;;;1.15;0.47;;;;;;;28.56;29.83;98881.79;1879743;75;28107;-43
2022/07/27 04:41:38;;;;;;;2.30;0.75;;;;;;;28.42;30.13;98886.31;1883935;75;28127;-42
2022/07/27 04:44:26;;;;;;;0.50;0.50;;;;;;;28.27;30.40;98885.58;1869682;76;28122;-42
2022/07/27 04:47:14;;;;;;;1.30;0.60;;;;;;;28.15;30.62;98882.34;1877624;76;28116;-42
2022/07/27 04:50:03;;;;;;;0.45;0.45;;;;;;;27.99;30.81;98885.76;1863545;76;28146;-42
2022/07/27 04:52:52;;;;;;;0.80;0.50;;;;;;;27.75;31.20;98891.66;1862601;76;28064;-42
2022/07/27 04:55:45;;;;;;;0.60;0.60;;;;;;;27.74;31.33;98888.63;1879210;75;28643;-43
2022/07/27 04:58:33;;;;;;;1.47;0.63;;;;;;;27.72;31.39;98894.98;1874335;76;28174;-42
2022/07/27 05:01:24;;;;;;;1.80;0.50;;;;;;;27.68;31.42;98889.77;1787545;77;28282;-43
2022/07/27 05:04:12;;;;;;;1.50;0.60;;;;;;;27.60;31.52;98896.69;1791644;78;28300;-43
2022/07/27 05:07:01;;;;;;;0.88;0.60;;;;;;;27.65;31.68;98898.05;1863981;75;28092;-44
2022/07/27 05:09:49;;;;;;;0.90;0.70;;;;;;;27.66;31.65;98898.30;1876134;74;28038;-43
2022/07/27 05:12:38;;;;;;;0.60;0.60;;;;;;;27.64;31.75;98908.80;1855352;76;28051;-42
2022/07/27 05:15:26;;;;;;;0.90;0.70;;;;;;;27.62;31.80;98913.78;1860617;76;28053;-43
2022/07/27 05:18:14;;;;;;;1.50;0.70;;;;;;;27.54;31.79;98916.30;1868852;75;28123;-42
2022/07/27 05:21:03;;;;;;;0.57;0.57;;;;;;;27.50;31.83;98926.23;1853747;76;31011;-42
2022/07/27 05:23:52;;;;;;;0.60;0.50;;;;;;;27.39;32.00;98924.90;1856290;77;28577;-41
2022/07/27 05:26:41;;;;;;;1.10;0.50;;;;;;;27.29;32.13;98931.77;1874460;75;28368;-41
2022/07/27 05:29:29;;;;;;;1.10;0.65;;;;;;;27.27;32.19;98933.99;1861549;76;28178;-41
2022/07/27 05:32:18;;;;;;;0.80;0.80;;;;;;;27.11;32.48;98942.02;1869209;75;28082;-41
2022/07/27 05:35:07;;;;;;;2.25;0.68;;;;;;;27.03;32.68;98941.73;1856016;75;28201;-41
2022/07/27 05:37:56;;;;;;;1.62;0.60;;;;;;;26.97;32.83;98949.20;1872606;75;28023;-42
2022/07/27 05:40:47;;;;;;;1.00;0.80;;;;;;;26.99;32.92;98953.04;1854783;76;28183;-40
2022/07/27 05:43:36;;;;;;;0.60;0.60;;;;;;;26.93;33.01;98961.88;1853453;76;28165;-42
2022/07/27 05:46:24;;;;;;;0.90;0.80;;;;;;;26.91;33.02;98963.27;1870255;75;28056;-42
2022/07/27 05:49:13;;;;;;;0.60;0.60;;;;;;;27.00;32.92;98965.16;1865019;75;28022;-42
2022/07/27 05:52:02;;;;;;;1.75;0.70;;;;;;;27.02;32.86;98970.42;1849881;77;28662;-45
2022/07/27 05:54:50;;;;;;;0.70;0.70;;;;;;;27.02;32.81;98968.49;1842946;77;28129;-51
2022/07/27 05:57:40;;;;;;;0.72;0.72;;;;;;;27.01;32.77;98977.85;1860548;76;28045;-47
2022/07/27 06:00:28;;;;;;;2.65;0.82;;;;;;;27.16;32.82;98978.41;1858414;76;28068;-48
2022/07/27 06:03:16;;;;;;;1.63;0.77;;;;;;;27.31;32.77;98968.72;1867869;76;28165;-50
2022/07/27 06:09:11;;;;;;;0.50;0.50;;;;;;;27.67;32.65;98973.64;1876711;76;28175;-47
2022/07/27 06:11:59;;;;;;;0.82;0.65;;;;;;;27.78;32.54;98972.50;1875950;75;28122;-45
2022/07/27 06:14:47;;;;;;;1.00;0.80;;;;;;;27.89;32.42;98966.66;1884683;75;28080;-45
2022/07/27 06:17:36;;;;;;;0.53;0.53;;;;;;;28.03;32.27;98972.42;1873654;76;28124;-51
2022/07/27 06:20:26;;;;;;;0.60;0.60;;;;;;;28.16;32.16;98969.61;1885154;75;28051;-50
2022/07/27 06:23:14;;;;;;;0.60;0.40;;;;;;;28.23;32.03;98965.44;1878017;75;28153;-49
2022/07/27 06:26:03;;;;;;;0.70;0.70;;;;;;;28.35;31.88;98970.08;1866706;76;28221;-49
2022/07/27 06:28:57;;;;;;;0.60;0.57;;;;;;;28.43;31.81;98968.08;1867172;76;28185;-48
2022/07/27 06:31:41;;;;;;;2.55;1.02;;;;;;;28.54;31.69;98960.56;1876602;75;28217;-48
2022/07/27 06:34:30;;;;;;;2.20;0.60;;;;;;;28.62;31.59;98966.33;1878415;76;28185;-45
2022/07/27 06:37:18;;;;;;;3.10;0.80;;;;;;;28.71;31.43;98969.30;1878422;76;28083;-45
2022/07/27 06:40:08;;;;;;;0.65;0.50;;;;;;;28.76;31.42;98966.50;1878263;75;28065;-47
2022/07/27 06:42:59;;;;;;;1.80;0.60;;;;;;;28.82;31.33;98962.61;1862316;75;28031;-46
2022/07/27 06:45:47;;;;;;;0.50;0.50;;;;;;;28.90;31.26;98962.52;1878135;76;28078;-46
2022/07/27 06:48:36;;;;;;;0.50;0.50;;;;;;;28.99;31.16;98970.45;1854622;76;28107;-47
2022/07/27 06:51:24;;;;;;;0.55;0.50;;;;;;;29.04;31.06;98978.72;1878297;75;28101;-46
2022/07/27 06:54:12;;;;;;;0.98;0.70;;;;;;;29.07;31.05;98969.84;1878270;75;28155;-51
2022/07/27 06:57:01;;;;;;;0.65;0.60;;;;;;;29.09;31.03;98971.77;1877210;76;28194;-45
2022/07/27 06:59:50;;;;;;;1.60;0.47;;;;;;;29.14;30.97;98970.34;1878197;75;28239;-46
2022/07/27 07:02:40;;;;;;;0.70;0.60;;;;;;;29.17;30.89;98963.66;1866612;76;28676;-49
2022/07/27 07:05:44;;;;;;;0.70;0.70;;;;;;;29.20;30.91;98971.97;1856619;76;28188;-48
2022/07/27 07:08:32;;;;;;;0.60;0.60;;;;;;;29.19;30.94;98973.09;1872222;75;32027;-49
2022/07/27 07:11:21;;;;;;;0.90;0.37;;;;;;;29.18;30.93;98968.11;1845937;77;28182;-46
2022/07/27 07:14:09;;;;;;;0.50;0.50;;;;;;;29.22;30.92;98970.56;1844629;77;28161;-47
2022/07/27 07:17:00;;;;;;;0.53;0.50;;;;;;;29.28;30.85;98976.88;1871498;75;28135;-47
2022/07/27 07:19:48;;;;;;;0.50;0.50;;;;;;;29.31;30.81;98974.92;1856859;77;28091;-48
2022/07/27 07:22:36;;;;;;;0.40;0.40;;;;;;;29.36;30.72;98977.06;1854417;75;34960;-48
2022/07/27 07:25:26;;;;;;;0.30;0.30;;;;;;;29.45;30.65;98977.83;1860129;76;28080;-45
2022/07/27 07:28:15;;;;;;;0.70;0.60;;;;;;;29.51;30.59;98965.58;1870607;75;28128;-51
2022/07/27 07:31:03;;;;;;;0.65;0.60;;;;;;;29.52;30.53;98969.45;1860937;75;28045;-46
2022/07/27 07:33:51;;;;;;;0.40;0.40;;;;;;;29.56;30.49;98973.83;1868366;75;28143;-45
2022/07/27 07:36:40;;;;;;;0.55;0.50;;;;;;;29.58;30.47;98969.66;1861323;76;28207;-47
2022/07/27 07:39:28;;;;;;;0.35;0.35;;;;;;;29.60;30.45;98966.03;1851125;76;28071;-45
2022/07/27 07:42:16;;;;;;;1.45;0.60;;;;;;;29.64;30.42;98967.08;1856883;77;28131;-50
2022/07/27 07:45:06;;;;;;;0.80;0.50;;;;;;;29.63;30.41;98967.39;1852397;76;28098;-45
2022/07/27 07:47:55;;;;;;;0.60;0.60;;;;;;;29.62;30.45;98963.78;1857481;76;28041;-45
2022/07/27 07:50:44;;;;;;;0.40;0.40;;;;;;;29.64;30.46;98959.36;1868954;75;28107;-48
2022/07/27 07:53:32;;;;;;;0.30;0.30;;;;;;;29.65;30.43;98960.44;1876032;75;30060;-48
2022/07/27 07:56:24;;;;;;;0.60;0.50;;;;;;;29.67;30.42;98954.59;1853191;77;28038;-45
2022/07/27 07:59:13;;;;;;;0.70;0.50;;;;;;;29.68;30.44;98951.56;1864948;76;28064;-47
2022/07/27 08:02:05;;;;;;;1.57;0.53;;;;;;;29.69;30.41;98955.95;1848988;76;28197;-47
2022/07/27 08:04:54;;;;;;;1.20;0.55;;;;;;;29.74;30.39;98950.92;1857323;76;28310;-45
2022/07/27 08:07:45;;;;;;;0.40;0.40;;;;;;;29.73;30.38;98954.27;1874334;76;28422;-46
2022/07/27 08:10:33;;;;;;;0.50;0.50;;;;;;;29.75;30.39;98954.80;1882513;75;28060;-47
2022/07/27 08:13:22;;;;;;;0.75;0.40;;;;;;;29.76;30.39;98950.92;1878914;75;28147;-46
2022/07/27 08:16:13;;;;;;;0.40;0.40;;;;;;;29.76;30.35;98942.61;1867009;76;28639;-45
2022/07/27 08:19:01;;;;;;;0.47;0.43;;;;;;;29.80;30.33;98948.41;1859632;76;28168;-46
2022/07/27 08:21:50;;;;;;;0.55;0.40;;;;;;;29.83;30.29;98947.23;1878596;75;28186;-47
2022/07/27 08:24:38;;;;;;;0.50;0.40;;;;;;;29.85;30.30;98942.22;1867851;75;28068;-45
2022/07/27 08:27:27;;;;;;;0.40;0.40;;;;;;;29.89;30.28;98951.61;1864091;76;28168;-48
2022/07/27 08:30:15;;;;;;;0.68;0.60;;;;;;;29.91;30.24;98948.53;1883699;75;34078;-47
2022/07/27 08:33:05;;;;;;;1.32;0.45;;;;;;;29.92;30.24;98945.45;1876461;76;35882;-47
2022/07/27 08:35:56;;;;;;;0.30;0.30;;;;;;;29.92;30.25;98942.69;1862171;76;28066;-45
2022/07/27 08:38:44;;;;;;;0.60;0.50;;;;;;;29.94;30.22;98943.21;1872538;75;28135;-49
2022/07/27 08:41:32;;;;;;;1.07;0.42;;;;;;;29.97;30.20;98934.87;1881501;75;28115;-48
2022/07/27 08:44:28;;;;;;;0.70;0.50;;;;;;;29.97;30.20;98938.48;1872664;75;28013;-50
2022/07/27 08:47:16;;;;;;;0.40;0.40;;;;;;;29.99;30.19;98935.43;1877905;76;28110;-45
2022/07/27 08:50:21;;;;;;;0.45;0.45;;;;;;;30.02;30.15;98940.35;1864012;76;28055;-47
2022/07/27 08:53:08;;;;;;;0.55;0.50;;;;;;;30.00;30.19;98936.51;1866668;76;28349;-47
2022/07/27 08:55:57;;;;;;;0.40;0.40;;;;;;;30.02;30.21;98932.05;1873954;75;28047;-46
2022/07/27 08:58:46;;;;;;;0.40;0.40;;;;;;;30.00;30.22;98939.28;1866201;76;28134;-49
2022/07/27 09:01:35;;;;;;;0.30;0.30;;;;;;;30.03;30.21;98936.48;1882460;75;28041;-46
2022/07/27 09:04:24;;;;;;;1.00;0.40;;;;;;;30.04;30.21;98934.78;1886391;75;28052;-48
2022/07/27 09:07:15;;;;;;;0.40;0.40;;;;;;;30.08;30.17;98934.44;1857117;76;28201;-46
2022/07/27 09:10:06;;;;;;;1.72;0.42;;;;;;;30.08;30.14;98933.05;1852541;76;28000;-47
2022/07/27 09:12:54;;;;;;;1.40;0.60;;;;;;;30.09;30.16;98922.81;1862413;75;28152;-45
2022/07/27 09:15:47;;;;;;;0.57;0.55;;;;;;;30.06;30.27;98935.86;1862566;76;28095;-44
2022/07/27 09:18:37;;;;;;;0.40;0.40;;;;;;;30.05;30.37;98933.67;1863670;76;28162;-44
2022/07/27 09:21:27;;;;;;;1.10;0.60;;;;;;;30.08;30.29;98936.41;1852679;75;28423;-43
2022/07/27 09:24:16;;;;;;;0.50;0.50;;;;;;;30.10;30.27;98943.86;1846086;74;28083;-43
2022/07/27 09:27:05;;;;;;;0.53;0.50;;;;;;;30.08;30.29;98930.28;1855073;77;28413;-43
2022/07/27 09:29:57;;;;;;;0.50;0.50;;;;;;;30.13;30.27;98931.36;1880761;74;28079;-43
2022/07/27 09:32:54;;;;;;;0.98;0.53;;;;;;;30.13;30.25;98923.05;1856463;77;28131;-45
2022/07/27 09:35:45;;;;;;;0.50;0.50;;;;;;;30.16;30.25;98926.59;1868291;76;28235;-44
2022/07/27 09:38:33;;;;;;;1.53;0.60;;;;;;;30.17;30.23;98921.33;1839025;77;28086;-45
2022/07/27 09:41:23;;;;;;;0.40;0.40;;;;;;;30.16;30.24;98923.27;1845598;76;28169;-43
2022/07/27 09:44:12;;;;;;;0.60;0.40;;;;;;;30.17;30.25;98926.31;1855668;76;28060;-45
2022/07/27 09:47:01;;;;;;;0.98;0.50;;;;;;;30.15;30.30;98920.25;1851943;76;28099;-45
2022/07/27 09:49:49;;;;;;;0.62;0.60;;;;;;;30.20;30.28;98922.92;1857788;76;28081;-45
2022/07/27 09:52:37;;;;;;;0.60;0.57;;;;;;;30.21;30.25;98922.37;1880351;75;27979;-46
2022/07/27 09:55:26;;;;;;;0.47;0.30;;;;;;;30.23;30.28;98918.73;1864155;75;28531;-50
2022/07/27 09:58:15;;;;;;;0.60;0.40;;;;;;;30.24;30.22;98923.99;1859081;75;28133;-47
2022/07/27 10:01:04;;;;;;;0.70;0.53;;;;;;;30.26;30.26;98913.98;1858136;76;28181;-45
2022/07/27 10:03:55;;;;;;;0.40;0.40;;;;;;;30.26;30.25;98912.60;1851323;76;27992;-44
2022/07/27 10:06:44;;;;;;;0.57;0.40;;;;;;;30.28;30.23;98907.58;1860778;75;28106;-44
2022/07/27 10:09:33;;;;;;;0.33;0.33;;;;;;;30.26;30.25;98902.91;1886012;75;28151;-43
2022/07/27 10:12:22;;;;;;;1.10;0.47;;;;;;;30.28;30.26;98903.42;1878554;75;28055;-44
2022/07/27 10:15:12;;;;;;;0.50;0.50;;;;;;;30.28;30.27;98900.09;1878559;75;28128;-46
2022/07/27 10:18:04;;;;;;;0.40;0.40;;;;;;;30.27;30.34;98897.64;1853119;76;28207;-47
2022/07/27 10:20:55;;;;;;;0.50;0.50;;;;;;;30.24;30.41;98893.52;1859997;76;28071;-46
2022/07/27 10:23:52;;;;;;;0.25;0.25;;;;;;;30.22;30.49;98887.45;1875493;76;28087;-45
2022/07/27 10:26:43;;;;;;;0.50;0.50;;;;;;;30.24;30.54;98884.38;1887005;75;28201;-47
2022/07/27 10:29:32;;;;;;;0.70;0.70;;;;;;;30.25;30.54;98880.46;1883484;75;28053;-48
2022/07/27 10:32:32;;;;;;;1.52;0.50;;;;;;;30.23;30.71;98873.02;1877906;76;28107;-48
2022/07/27 10:35:35;;;;;;;0.50;0.50;;;;;;;30.26;30.65;98873.25;1870985;76;28246;-48
2022/07/27 10:38:23;;;;;;;0.60;0.60;;;;;;;30.25;30.63;98879.91;1859083;75;28143;-48
2022/07/27 10:41:27;;;;;;;0.50;0.50;;;;;;;30.24;30.69;98871.34;1871732;75;28115;-45
2022/07/27 10:44:21;;;;;;;1.47;0.70;;;;;;;30.26;30.68;98861.34;1880394;75;27986;-47
2022/07/27 10:47:11;;;;;;;0.50;0.50;;;;;;;30.28;30.68;98864.63;1877429;75;28082;-47
2022/07/27 10:50:22;;;;;;;0.43;0.43;;;;;;;30.26;30.71;98864.11;1884918;75;28232;-45
2022/07/27 10:53:13;;;;;;;0.50;0.50;;;;;;;30.29;30.66;98860.75;1877156;76;28112;-47
2022/07/27 10:56:02;;;;;;;0.45;0.40;;;;;;;30.28;30.70;98858.53;1877680;76;28137;-46
2022/07/27 10:58:51;;;;;;;0.50;0.50;;;;;;;30.26;30.71;98845.55;1877711;76;28140;-48
2022/07/27 11:01:59;;;;;;;1.60;1.17;;;;;;;30.27;30.73;98854.69;1877706;76;28064;-46
2022/07/27 11:04:52;;;;;;;0.80;0.50;;;;;;;30.30;30.69;98845.20;1860089;76;28180;-47
2022/07/27 11:07:44;;;;;;;0.47;0.47;;;;;;;30.28;30.71;98838.30;1877920;74;28188;-47
2022/07/27 11:10:35;;;;;;;0.40;0.40;;;;;;;30.33;30.67;98832.72;1884444;75;28099;-48
2022/07/27 11:13:25;;;;;;;0.50;0.50;;;;;;;30.32;30.65;98838.78;1884388;75;28137;-45
2022/07/27 11:16:16;;;;;;;0.50;0.50;;;;;;;30.31;30.66;98834.94;1884540;75;28109;-46
2022/07/27 11:19:06;;;;;;;0.40;0.37;;;;;;;30.32;30.69;98835.19;1884392;75;28051;-49
2022/07/27 11:21:55;;;;;;;0.40;0.40;;;;;;;30.32;30.64;98822.72;1884273;75;28485;-45
2022/07/27 11:24:45;;;;;;;0.60;0.30;;;;;;;30.32;30.64;98823.55;1884310;75;28111;-50
2022/07/27 11:27:50;;;;;;;0.62;0.55;;;;;;;30.37;30.61;98819.90;1884359;75;28118;-49
2022/07/27 11:30:39;;;;;;;0.60;0.60;;;;;;;30.36;30.60;98813.55;1865247;75;28129;-48
2022/07/27 11:33:28;;;;;;;0.42;0.42;;;;;;;30.32;30.65;98811.63;1884209;75;28133;-50
2022/07/27 11:36:17;;;;;;;0.40;0.40;;;;;;;30.32;30.65;98818.00;1861867;75;28277;-47
2022/07/27 11:39:09;;;;;;;0.90;0.70;;;;;;;30.35;30.64;98808.30;1884216;75;28106;-48
2022/07/27 11:42:00;;;;;;;0.40;0.40;;;;;;;30.37;30.58;98801.88;1864425;75;28095;-47
2022/07/27 11:44:49;;;;;;;0.40;0.40;;;;;;;30.38;30.58;98810.47;1884239;75;28065;-47
2022/07/27 11:47:38;;;;;;;0.50;0.50;;;;;;;30.41;30.54;98816.80;1884250;75;28176;-47
2022/07/27 11:50:26;;;;;;;0.50;0.50;;;;;;;30.40;30.54;98809.60;1884347;75;28150;-45
2022/07/27 11:53:18;;;;;;;0.40;0.40;;;;;;;30.41;30.54;98801.56;1864095;75;28371;-46
2022/07/27 11:56:06;;;;;;;0.42;0.42;;;;;;;30.44;30.54;98807.86;1884132;75;28211;-47
2022/07/27 11:59:03;;;;;;;0.50;0.50;;;;;;;30.45;30.48;98797.05;1884185;75;28064;-49
2022/07/27 12:02:03;;;;;;;1.00;0.40;;;;;;;30.46;30.44;98805.61;1884366;75;28560;-48
2022/07/27 12:05:04;;;;;;;0.50;0.50;;;;;;;30.43;30.47;98786.28;1852354;77;28166;-45
2022/07/27 12:07:54;;;;;;;0.42;0.42;;;;;;;30.40;30.55;98777.17;1864676;75;28150;-47
2022/07/27 12:10:59;;;;;;;0.63;0.63;;;;;;;30.42;30.53;98789.33;1871383;75;28236;-45
2022/07/27 12:13:47;;;;;;;0.50;0.30;;;;;;;30.42;30.54;98776.30;1872407;76;28255;-45
2022/07/27 12:16:36;;;;;;;0.60;0.60;;;;;;;30.40;30.71;98769.42;1877636;76;28478;-45
2022/07/27 12:19:25;;;;;;;0.50;0.50;;;;;;;30.40;30.71;98769.42;1857193;76;28303;-46
2022/07/27 12:22:13;;;;;;;0.50;0.50;;;;;;;30.41;30.53;98768.30;1855655;76;28178;-50
2022/07/27 12:25:06;;;;;;;0.50;0.50;;;;;;;30.43;30.50;98761.34;1877530;76;28056;-46
2022/07/27 12:28:04;;;;;;;0.40;0.40;;;;;;;30.46;30.46;98755.72;1877693;76;28092;-49
2022/07/27 12:31:01;;;;;;;0.40;0.40;;;;;;;30.47;30.45;98758.20;1865079;76;28099;-50
2022/07/27 12:33:54;;;;;;;0.40;0.40;;;;;;;30.44;30.54;98759.36;1857659;76;28195;-45
2022/07/27 12:36:42;;;;;;;0.40;0.40;;;;;;;30.45;30.53;98754.92;1853599;76;28064;-46
2022/07/27 12:39:32;;;;;;;0.40;0.40;;;;;;;30.49;30.58;98747.63;1874347;76;28125;-48
2022/07/27 12:42:23;;;;;;;1.00;0.40;;;;;;;30.49;30.58;98747.63;1860200;76;28064;-50
2022/07/27 12:45:14;;;;;;;0.30;0.30;;;;;;;30.52;30.59;98751.19;1855561;76;28075;-52
2022/07/27 12:48:17;;;;;;;0.70;0.65;;;;;;;30.51;30.63;98752.86;1877655;76;28068;-48
2022/07/27 12:51:08;;;;;;;1.10;0.42;;;;;;;30.54;30.63;98746.71;1877567;76;28130;-46
2022/07/27 12:53:57;;;;;;;0.57;0.57;;;;;;;30.50;30.65;98735.98;1877837;76;28099;-46
2022/07/27 12:56:48;;;;;;;0.40;0.40;;;;;;;30.50;30.68;98732.62;1857410;76;28602;-48
2022/07/27 12:59:36;;;;;;;0.45;0.45;;;;;;;30.51;30.70;98723.75;1855234;76;28119;-49
2022/07/27 13:02:24;;;;;;;0.30;0.30;;;;;;;30.52;30.66;98727.63;1876202;76;28197;-52
2022/07/27 13:05:15;;;;;;;0.50;0.50;;;;;;;30.56;30.61;98714.79;1861111;76;28248;-47
2022/07/27 13:08:04;;;;;;;0.80;0.60;;;;;;;30.57;30.60;98710.08;1856546;76;28137;-47
2022/07/27 13:10:52;;;;;;;0.60;0.60;;;;;;;30.57;30.61;98707.30;1880833;75;28233;-44
2022/07/27 13:13:40;;;;;;;0.57;0.55;;;;;;;30.59;30.57;98707.81;1859701;75;28139;-45
2022/07/27 13:16:29;;;;;;;1.52;0.60;;;;;;;30.62;30.56;98702.46;1867466;75;28143;-49
2022/07/27 13:19:18;;;;;;;0.60;0.60;;;;;;;30.62;30.53;98698.89;1884297;75;28132;-48
2022/07/27 13:22:07;;;;;;;0.47;0.47;;;;;;;30.60;30.53;98699.18;1884336;75;29142;-49
2022/07/27 13:24:55;;;;;;;0.50;0.50;;;;;;;30.62;30.51;98694.73;1866911;75;28240;-48